sensor_id;sensor_type;location;lat;lon;timestamp;pressure;altitude;pressure_sealevel;temperature;humidity
52839;BME280;39219;53.678;9.856;2023-05-07T00:01:02;77556.63;;;-147.77;90.02
52839;BME280;39219;53.678;9.856;2023-05-07T00:03:31;77562.69;;;-147.77;90.06
52839;BME280;39219;53.678;9.856;2023-05-07T00:05:57;77572.81;;;-147.77;90.29
52839;BME280;39219;53.678;9.856;2023-05-07T00:08:24;77570.78;;;-147.77;90.45
52839;BME280;39219;53.678;9.856;2023-05-07T00:10:50;77568.78;;;-147.77;90.15
52839;BME280;39219;53.678;9.856;2023-05-07T00:13:17;77576.88;;;-147.77;89.86
52839;BME280;39219;53.678;9.856;2023-05-07T00:15:43;77576.88;;;-147.77;89.98
52839;BME280;39219;53.678;9.856;2023-05-07T00:18:11;77582.94;;;-147.77;89.70
52839;BME280;39219;53.678;9.856;2023-05-07T00:20:37;77582.94;;;-147.77;89.48
52839;BME280;39219;53.678;9.856;2023-05-07T00:23:04;77580.91;;;-147.77;89.09
52839;BME280;39219;53.678;9.856;2023-05-07T00:25:30;77593.06;;;-147.77;88.89
52839;BME280;39219;53.678;9.856;2023-05-07T00:27:57;77591.03;;;-147.77;89.20
52839;BME280;39219;53.678;9.856;2023-05-07T00:30:27;77582.94;;;-147.77;88.77
52839;BME280;39219;53.678;9.856;2023-05-07T00:32:54;77589.00;;;-147.77;88.17
52839;BME280;39219;53.678;9.856;2023-05-07T00:35:22;77589.00;;;-147.77;88.39
52839;BME280;39219;53.678;9.856;2023-05-07T00:37:49;77578.88;;;-147.77;88.31
52839;BME280;39219;53.678;9.856;2023-05-07T00:40:15;77576.88;;;-147.77;88.35
52839;BME280;39219;53.678;9.856;2023-05-07T00:42:42;77580.91;;;-147.77;88.36
52839;BME280;39219;53.678;9.856;2023-05-07T00:45:12;77578.88;;;-147.77;88.20
52839;BME280;39219;53.678;9.856;2023-05-07T00:47:38;77574.84;;;-147.77;88.14
52839;BME280;39219;53.678;9.856;2023-05-07T00:50:06;77578.88;;;-147.77;88.36
52839;BME280;39219;53.678;9.856;2023-05-07T00:52:37;77576.88;;;-147.77;87.91
52839;BME280;39219;53.678;9.856;2023-05-07T00:55:05;77574.84;;;-147.77;88.33
52839;BME280;39219;53.678;9.856;2023-05-07T00:57:33;77580.91;;;-147.77;88.20
52839;BME280;39219;53.678;9.856;2023-05-07T01:00:03;77586.97;;;-147.77;88.38
52839;BME280;39219;53.678;9.856;2023-05-07T01:02:30;77572.81;;;-147.77;88.60
52839;BME280;39219;53.678;9.856;2023-05-07T01:04:56;77568.78;;;-147.77;88.78
52839;BME280;39219;53.678;9.856;2023-05-07T01:07:23;77572.81;;;-147.77;88.49
52839;BME280;39219;53.678;9.856;2023-05-07T01:09:51;77572.81;;;-147.77;88.33
52839;BME280;39219;53.678;9.856;2023-05-07T01:12:18;77564.72;;;-147.77;88.31
52839;BME280;39219;53.678;9.856;2023-05-07T01:14:45;77560.69;;;-147.77;87.92
52839;BME280;39219;53.678;9.856;2023-05-07T01:17:11;77564.72;;;-147.77;88.39
52839;BME280;39219;53.678;9.856;2023-05-07T01:19:38;77570.78;;;-147.77;87.90
52839;BME280;39219;53.678;9.856;2023-05-07T01:22:09;77564.72;;;-147.77;88.20
52839;BME280;39219;53.678;9.856;2023-05-07T01:24:37;77556.63;;;-147.77;87.99
52839;BME280;39219;53.678;9.856;2023-05-07T01:27:04;77554.59;;;-147.77;87.64
52839;BME280;39219;53.678;9.856;2023-05-07T01:29:31;77566.75;;;-147.77;88.20
52839;BME280;39219;53.678;9.856;2023-05-07T01:31:59;77572.81;;;-147.77;88.09
52839;BME280;39219;53.678;9.856;2023-05-07T01:34:27;77574.84;;;-147.77;88.57
52839;BME280;39219;53.678;9.856;2023-05-07T01:36:55;77566.75;;;-147.77;88.85
52839;BME280;39219;53.678;9.856;2023-05-07T01:39:24;77568.78;;;-147.77;88.46
52839;BME280;39219;53.678;9.856;2023-05-07T01:41:53;77578.88;;;-147.77;88.27
52839;BME280;39219;53.678;9.856;2023-05-07T01:44:21;77589.00;;;-147.77;88.19
52839;BME280;39219;53.678;9.856;2023-05-07T01:46:48;77572.81;;;-147.77;87.97
52839;BME280;39219;53.678;9.856;2023-05-07T01:49:16;77572.81;;;-147.77;88.13
52839;BME280;39219;53.678;9.856;2023-05-07T01:51:43;77580.91;;;-147.77;88.22
52839;BME280;39219;53.678;9.856;2023-05-07T01:54:10;77580.91;;;-147.77;87.71
52839;BME280;39219;53.678;9.856;2023-05-07T01:56:36;77584.97;;;-147.77;88.14
52839;BME280;39219;53.678;9.856;2023-05-07T01:59:04;77593.06;;;-147.77;88.20
52839;BME280;39219;53.678;9.856;2023-05-07T02:01:30;77580.91;;;-147.77;88.29
52839;BME280;39219;53.678;9.856;2023-05-07T02:03:57;77582.94;;;-147.77;88.40
52839;BME280;39219;53.678;9.856;2023-05-07T02:06:23;77584.97;;;-147.77;88.34
52839;BME280;39219;53.678;9.856;2023-05-07T02:08:50;77599.13;;;-147.77;88.23
52839;BME280;39219;53.678;9.856;2023-05-07T02:11:16;77597.09;;;-147.77;88.09
52839;BME280;39219;53.678;9.856;2023-05-07T02:13:43;77595.06;;;-147.77;88.31
52839;BME280;39219;53.678;9.856;2023-05-07T02:16:10;77591.03;;;-147.77;88.78
52839;BME280;39219;53.678;9.856;2023-05-07T02:18:39;77603.16;;;-147.77;88.24
52839;BME280;39219;53.678;9.856;2023-05-07T02:21:05;77613.28;;;-147.77;88.76
52839;BME280;39219;53.678;9.856;2023-05-07T02:23:32;77617.34;;;-147.77;88.58
52839;BME280;39219;53.678;9.856;2023-05-07T02:25:58;77621.38;;;-147.77;88.61
52839;BME280;39219;53.678;9.856;2023-05-07T02:28:25;77617.34;;;-147.77;88.62
52839;BME280;39219;53.678;9.856;2023-05-07T02:30:52;77611.25;;;-147.77;88.34
52839;BME280;39219;53.678;9.856;2023-05-07T02:33:20;77605.19;;;-147.77;88.49
52839;BME280;39219;53.678;9.856;2023-05-07T02:35:46;77609.25;;;-147.77;88.13
52839;BME280;39219;53.678;9.856;2023-05-07T02:38:13;77603.16;;;-147.77;88.13
52839;BME280;39219;53.678;9.856;2023-05-07T02:40:39;77607.22;;;-147.77;88.05
52839;BME280;39219;53.678;9.856;2023-05-07T02:43:06;77599.13;;;-147.77;88.37
52839;BME280;39219;53.678;9.856;2023-05-07T02:45:32;77607.22;;;-147.77;88.34
52839;BME280;39219;53.678;9.856;2023-05-07T02:47:59;77607.22;;;-147.77;88.58
52839;BME280;39219;53.678;9.856;2023-05-07T02:50:26;77611.25;;;-147.77;88.34
52839;BME280;39219;53.678;9.856;2023-05-07T02:52:53;77609.25;;;-147.77;88.55
52839;BME280;39219;53.678;9.856;2023-05-07T02:55:19;77603.16;;;-147.77;88.62
52839;BME280;39219;53.678;9.856;2023-05-07T02:57:46;77601.16;;;-147.77;88.50
52839;BME280;39219;53.678;9.856;2023-05-07T03:00:14;77605.19;;;-147.77;88.76
52839;BME280;39219;53.678;9.856;2023-05-07T03:02:42;77599.13;;;-147.77;88.76
52839;BME280;39219;53.678;9.856;2023-05-07T03:05:08;77603.16;;;-147.77;88.88
52839;BME280;39219;53.678;9.856;2023-05-07T03:07:37;77601.16;;;-147.77;89.11
52839;BME280;39219;53.678;9.856;2023-05-07T03:10:04;77607.22;;;-147.77;88.62
52839;BME280;39219;53.678;9.856;2023-05-07T03:12:31;77619.34;;;-147.77;89.49
52839;BME280;39219;53.678;9.856;2023-05-07T03:14:57;77621.38;;;-147.77;89.49
52839;BME280;39219;53.678;9.856;2023-05-07T03:17:24;77629.47;;;-147.77;89.34
52839;BME280;39219;53.678;9.856;2023-05-07T03:19:50;77633.53;;;-147.77;89.23
52839;BME280;39219;53.678;9.856;2023-05-07T03:22:17;77637.56;;;-147.77;89.18
52839;BME280;39219;53.678;9.856;2023-05-07T03:24:45;77635.53;;;-147.77;89.58
52839;BME280;39219;53.678;9.856;2023-05-07T03:27:11;77645.66;;;-147.77;89.33
52839;BME280;39219;53.678;9.856;2023-05-07T03:29:38;77645.66;;;-147.77;89.62
52839;BME280;39219;53.678;9.856;2023-05-07T03:32:04;77629.47;;;-147.77;89.60
52839;BME280;39219;53.678;9.856;2023-05-07T03:34:31;77627.44;;;-147.77;89.01
52839;BME280;39219;53.678;9.856;2023-05-07T03:36:57;77625.44;;;-147.77;89.34
52839;BME280;39219;53.678;9.856;2023-05-07T03:39:24;77635.53;;;-147.77;89.11
52839;BME280;39219;53.678;9.856;2023-05-07T03:41:51;77625.44;;;-147.77;89.02
52839;BME280;39219;53.678;9.856;2023-05-07T03:44:18;77617.34;;;-147.77;88.60
52839;BME280;39219;53.678;9.856;2023-05-07T03:46:45;77629.47;;;-147.77;88.21
52839;BME280;39219;53.678;9.856;2023-05-07T03:49:11;77631.50;;;-147.77;88.85
52839;BME280;39219;53.678;9.856;2023-05-07T03:51:38;77629.47;;;-147.77;88.80
52839;BME280;39219;53.678;9.856;2023-05-07T03:54:04;77645.66;;;-147.77;88.88
52839;BME280;39219;53.678;9.856;2023-05-07T03:56:31;77645.66;;;-147.77;88.73
52839;BME280;39219;53.678;9.856;2023-05-07T03:58:59;77631.50;;;-147.77;88.69
52839;BME280;39219;53.678;9.856;2023-05-07T04:01:26;77635.53;;;-147.77;88.36
52839;BME280;39219;53.678;9.856;2023-05-07T04:03:52;77629.47;;;-147.77;88.63
52839;BME280;39219;53.678;9.856;2023-05-07T04:06:18;77627.44;;;-147.77;88.13
52839;BME280;39219;53.678;9.856;2023-05-07T04:08:45;77629.47;;;-147.77;87.81
52839;BME280;39219;53.678;9.856;2023-05-07T04:11:12;77641.63;;;-147.77;87.47
52839;BME280;39219;53.678;9.856;2023-05-07T04:13:38;77627.44;;;-147.77;86.93
52839;BME280;39219;53.678;9.856;2023-05-07T04:16:06;77631.50;;;-147.77;86.73
52839;BME280;39219;53.678;9.856;2023-05-07T04:18:33;77625.44;;;-147.77;86.38
52839;BME280;39219;53.678;9.856;2023-05-07T04:20:59;77613.28;;;-147.77;86.69
52839;BME280;39219;53.678;9.856;2023-05-07T04:23:26;77615.31;;;-147.77;86.56
52839;BME280;39219;53.678;9.856;2023-05-07T04:25:52;77611.25;;;-147.77;86.55
52839;BME280;39219;53.678;9.856;2023-05-07T04:28:19;77615.31;;;-147.77;86.11
52839;BME280;39219;53.678;9.856;2023-05-07T04:30:46;77621.38;;;-147.77;85.94
52839;BME280;39219;53.678;9.856;2023-05-07T04:33:15;77619.34;;;-147.77;85.76
52839;BME280;39219;53.678;9.856;2023-05-07T04:35:42;77605.19;;;-147.77;85.60
52839;BME280;39219;53.678;9.856;2023-05-07T04:38:08;77613.28;;;-147.77;85.89
52839;BME280;39219;53.678;9.856;2023-05-07T04:40:35;77609.25;;;-147.77;85.90
52839;BME280;39219;53.678;9.856;2023-05-07T04:43:01;77603.16;;;-147.77;85.29
52839;BME280;39219;53.678;9.856;2023-05-07T04:45:28;77607.22;;;-147.77;85.21
52839;BME280;39219;53.678;9.856;2023-05-07T04:47:54;77607.22;;;-147.77;85.19
52839;BME280;39219;53.678;9.856;2023-05-07T04:50:22;77609.25;;;-147.77;85.24
52839;BME280;39219;53.678;9.856;2023-05-07T04:52:49;77609.25;;;-147.77;84.88
52839;BME280;39219;53.678;9.856;2023-05-07T04:55:16;77599.13;;;-147.77;84.63
52839;BME280;39219;53.678;9.856;2023-05-07T04:57:42;77607.22;;;-147.77;84.23
52839;BME280;39219;53.678;9.856;2023-05-07T05:00:09;77599.13;;;-147.77;84.30
52839;BME280;39219;53.678;9.856;2023-05-07T05:02:39;77589.00;;;-147.77;84.19
52839;BME280;39219;53.678;9.856;2023-05-07T05:05:06;77593.06;;;-147.77;83.61
52839;BME280;39219;53.678;9.856;2023-05-07T05:07:34;77597.09;;;-147.77;84.31
52839;BME280;39219;53.678;9.856;2023-05-07T05:10:01;77586.97;;;-147.77;83.87
52839;BME280;39219;53.678;9.856;2023-05-07T05:12:28;77584.97;;;-147.77;84.23
52839;BME280;39219;53.678;9.856;2023-05-07T05:14:55;77595.06;;;-147.77;83.85
52839;BME280;39219;53.678;9.856;2023-05-07T05:17:21;77595.06;;;-147.77;84.82
52839;BME280;39219;53.678;9.856;2023-05-07T05:19:48;77591.03;;;-147.77;84.93
52839;BME280;39219;53.678;9.856;2023-05-07T05:22:15;77589.00;;;-147.77;84.42
52839;BME280;39219;53.678;9.856;2023-05-07T05:24:42;77595.06;;;-147.77;84.37
52839;BME280;39219;53.678;9.856;2023-05-07T05:27:09;77584.97;;;-147.77;84.33
52839;BME280;39219;53.678;9.856;2023-05-07T05:29:35;77586.97;;;-147.77;83.91
52839;BME280;39219;53.678;9.856;2023-05-07T05:32:02;77582.94;;;-147.77;83.62
52839;BME280;39219;53.678;9.856;2023-05-07T05:34:28;77580.91;;;-147.77;83.42
52839;BME280;39219;53.678;9.856;2023-05-07T05:36:55;77578.88;;;-147.77;82.95
52839;BME280;39219;53.678;9.856;2023-05-07T05:39:21;77578.88;;;-147.77;82.69
52839;BME280;39219;53.678;9.856;2023-05-07T05:41:49;77578.88;;;-147.77;82.73
52839;BME280;39219;53.678;9.856;2023-05-07T05:44:16;77578.88;;;-147.77;82.35
52839;BME280;39219;53.678;9.856;2023-05-07T05:46:42;77582.94;;;-147.77;82.73
52839;BME280;39219;53.678;9.856;2023-05-07T05:49:09;77578.88;;;-147.77;82.89
52839;BME280;39219;53.678;9.856;2023-05-07T05:51:35;77584.97;;;-147.77;82.48
52839;BME280;39219;53.678;9.856;2023-05-07T05:54:02;77609.25;;;-147.77;82.72
52839;BME280;39219;53.678;9.856;2023-05-07T05:56:28;77605.19;;;-147.77;83.34
52839;BME280;39219;53.678;9.856;2023-05-07T05:58:56;77589.00;;;-147.77;83.16
52839;BME280;39219;53.678;9.856;2023-05-07T06:01:23;77578.88;;;-147.77;82.83
52839;BME280;39219;53.678;9.856;2023-05-07T06:03:49;77572.81;;;-147.77;82.73
52839;BME280;39219;53.678;9.856;2023-05-07T06:06:16;77572.81;;;-147.77;81.54
52839;BME280;39219;53.678;9.856;2023-05-07T06:08:42;77582.94;;;-147.77;81.92
52839;BME280;39219;53.678;9.856;2023-05-07T06:11:09;77580.91;;;-147.77;82.43
52839;BME280;39219;53.678;9.856;2023-05-07T06:13:35;77580.91;;;-147.77;82.46
52839;BME280;39219;53.678;9.856;2023-05-07T06:16:03;77584.97;;;-147.77;81.64
52839;BME280;39219;53.678;9.856;2023-05-07T06:18:30;77572.81;;;-147.77;82.13
52839;BME280;39219;53.678;9.856;2023-05-07T06:20:56;77578.88;;;-147.77;81.65
52839;BME280;39219;53.678;9.856;2023-05-07T06:23:23;77564.72;;;-147.77;82.48
52839;BME280;39219;53.678;9.856;2023-05-07T06:25:50;77564.72;;;-147.77;82.01
52839;BME280;39219;53.678;9.856;2023-05-07T06:28:17;77584.97;;;-147.77;81.69
52839;BME280;39219;53.678;9.856;2023-05-07T06:30:43;77576.88;;;-147.77;82.35
52839;BME280;39219;53.678;9.856;2023-05-07T06:33:11;77574.84;;;-147.77;81.57
52839;BME280;39219;53.678;9.856;2023-05-07T06:35:38;77576.88;;;-147.77;81.40
52839;BME280;39219;53.678;9.856;2023-05-07T06:38:04;77560.69;;;-147.77;81.54
52839;BME280;39219;53.678;9.856;2023-05-07T06:40:30;77552.59;;;-147.77;80.72
52839;BME280;39219;53.678;9.856;2023-05-07T06:42:57;77540.44;;;-147.77;80.86
52839;BME280;39219;53.678;9.856;2023-05-07T06:45:23;77534.38;;;-147.77;80.44
52839;BME280;39219;53.678;9.856;2023-05-07T06:47:50;77532.34;;;-147.77;80.28
52839;BME280;39219;53.678;9.856;2023-05-07T06:50:18;77530.31;;;-147.77;80.51
52839;BME280;39219;53.678;9.856;2023-05-07T06:52:44;77540.44;;;-147.77;79.75
52839;BME280;39219;53.678;9.856;2023-05-07T06:55:11;77532.34;;;-147.77;79.74
52839;BME280;39219;53.678;9.856;2023-05-07T06:57:37;77534.38;;;-147.77;79.57
52839;BME280;39219;53.678;9.856;2023-05-07T07:00:05;77538.41;;;-147.77;79.63
52839;BME280;39219;53.678;9.856;2023-05-07T07:02:34;77526.28;;;-147.77;79.50
52839;BME280;39219;53.678;9.856;2023-05-07T07:05:00;77497.94;;;-147.77;79.52
52839;BME280;39219;53.678;9.856;2023-05-07T07:07:28;77508.06;;;-147.77;78.78
52839;BME280;39219;53.678;9.856;2023-05-07T07:09:55;77512.13;;;-147.77;78.99
52839;BME280;39219;53.678;9.856;2023-05-07T07:12:21;77508.06;;;-147.77;79.31
52839;BME280;39219;53.678;9.856;2023-05-07T07:14:50;77495.94;;;-147.77;77.83
52839;BME280;39219;53.678;9.856;2023-05-07T07:17:16;77504.03;;;-147.77;78.30
52839;BME280;39219;53.678;9.856;2023-05-07T07:19:42;77499.97;;;-147.77;78.25
52839;BME280;39219;53.678;9.856;2023-05-07T07:22:09;77475.69;;;-147.77;77.87
52839;BME280;39219;53.678;9.856;2023-05-07T07:24:37;77463.56;;;-147.77;77.69
52839;BME280;39219;53.678;9.856;2023-05-07T07:27:04;77441.31;;;-147.77;77.30
52839;BME280;39219;53.678;9.856;2023-05-07T07:29:30;77441.31;;;-147.77;77.41
52839;BME280;39219;53.678;9.856;2023-05-07T07:31:57;77437.25;;;-147.77;77.19
52839;BME280;39219;53.678;9.856;2023-05-07T07:34:23;77429.16;;;-147.77;76.44
52839;BME280;39219;53.678;9.856;2023-05-07T07:36:49;77427.13;;;-147.77;76.06
52839;BME280;39219;53.678;9.856;2023-05-07T07:39:16;77433.22;;;-147.77;75.99
52839;BME280;39219;53.678;9.856;2023-05-07T07:41:44;77437.25;;;-147.77;75.87
52839;BME280;39219;53.678;9.856;2023-05-07T07:44:10;77437.25;;;-147.77;74.55
52839;BME280;39219;53.678;9.856;2023-05-07T07:46:38;77443.31;;;-147.77;74.77
52839;BME280;39219;53.678;9.856;2023-05-07T07:49:04;77435.22;;;-147.77;75.28
52839;BME280;39219;53.678;9.856;2023-05-07T07:51:31;77433.22;;;-147.77;75.38
52839;BME280;39219;53.678;9.856;2023-05-07T07:53:57;77431.19;;;-147.77;75.10
52839;BME280;39219;53.678;9.856;2023-05-07T07:56:24;77439.28;;;-147.77;74.82
52839;BME280;39219;53.678;9.856;2023-05-07T07:58:52;77443.31;;;-147.77;75.85
52839;BME280;39219;53.678;9.856;2023-05-07T08:01:18;77433.22;;;-147.77;75.47
52839;BME280;39219;53.678;9.856;2023-05-07T08:03:44;77427.13;;;-147.77;75.73
52839;BME280;39219;53.678;9.856;2023-05-07T08:06:11;77394.75;;;-147.77;75.17
52839;BME280;39219;53.678;9.856;2023-05-07T08:08:37;77382.63;;;-147.77;74.61
52839;BME280;39219;53.678;9.856;2023-05-07T08:11:04;77366.44;;;-147.77;73.15
52839;BME280;39219;53.678;9.856;2023-05-07T08:13:30;77360.38;;;-147.77;73.61
52839;BME280;39219;53.678;9.856;2023-05-07T08:15:58;77370.47;;;-147.77;71.82
52839;BME280;39219;53.678;9.856;2023-05-07T08:18:25;77378.56;;;-147.77;72.03
52839;BME280;39219;53.678;9.856;2023-05-07T08:20:54;77380.59;;;-147.77;71.86
52839;BME280;39219;53.678;9.856;2023-05-07T08:23:20;77392.75;;;-147.77;72.42
52839;BME280;39219;53.678;9.856;2023-05-07T08:25:47;77404.88;;;-147.77;73.27
52839;BME280;39219;53.678;9.856;2023-05-07T08:28:14;77417.03;;;-147.77;73.11
52839;BME280;39219;53.678;9.856;2023-05-07T08:30:40;77431.19;;;-147.77;74.13
52839;BME280;39219;53.678;9.856;2023-05-07T08:33:09;77463.56;;;-147.77;74.23
52839;BME280;39219;53.678;9.856;2023-05-07T08:35:36;77441.31;;;-147.77;74.32
52839;BME280;39219;53.678;9.856;2023-05-07T08:38:02;77431.19;;;-147.77;74.62
52839;BME280;39219;53.678;9.856;2023-05-07T08:40:29;77398.81;;;-147.77;74.91
52839;BME280;39219;53.678;9.856;2023-05-07T08:43:00;77398.81;;;-147.77;74.18
52839;BME280;39219;53.678;9.856;2023-05-07T08:45:30;77419.03;;;-147.77;73.35
52839;BME280;39219;53.678;9.856;2023-05-07T08:47:58;77429.16;;;-147.77;73.53
52839;BME280;39219;53.678;9.856;2023-05-07T08:50:27;77427.13;;;-147.77;72.69
52839;BME280;39219;53.678;9.856;2023-05-07T08:52:54;77421.06;;;-147.77;73.87
52839;BME280;39219;53.678;9.856;2023-05-07T08:55:23;77423.09;;;-147.77;73.59
52839;BME280;39219;53.678;9.856;2023-05-07T08:57:50;77423.09;;;-147.77;73.50
52839;BME280;39219;53.678;9.856;2023-05-07T09:00:17;77394.75;;;-147.77;73.29
52839;BME280;39219;53.678;9.856;2023-05-07T09:02:44;77364.41;;;-147.77;72.40
52839;BME280;39219;53.678;9.856;2023-05-07T09:05:10;77390.72;;;-147.77;71.13
52839;BME280;39219;53.678;9.856;2023-05-07T09:07:39;77417.03;;;-147.77;71.81
52839;BME280;39219;53.678;9.856;2023-05-07T09:10:06;77431.19;;;-147.77;72.40
52839;BME280;39219;53.678;9.856;2023-05-07T09:12:33;77404.88;;;-147.77;72.98
52839;BME280;39219;53.678;9.856;2023-05-07T09:15:00;77390.72;;;-147.77;72.11
52839;BME280;39219;53.678;9.856;2023-05-07T09:17:28;77372.50;;;-147.77;71.70
52839;BME280;39219;53.678;9.856;2023-05-07T09:19:54;77366.44;;;-147.77;71.41
52839;BME280;39219;53.678;9.856;2023-05-07T09:22:21;77376.56;;;-147.77;70.19
52839;BME280;39219;53.678;9.856;2023-05-07T09:24:49;77362.38;;;-147.77;70.33
52839;BME280;39219;53.678;9.856;2023-05-07T09:27:17;77380.59;;;-147.77;70.12
52839;BME280;39219;53.678;9.856;2023-05-07T09:29:44;77358.34;;;-147.77;69.52
52839;BME280;39219;53.678;9.856;2023-05-07T09:32:10;77336.09;;;-147.77;69.76
52839;BME280;39219;53.678;9.856;2023-05-07T09:34:37;77311.81;;;-147.77;69.31
52839;BME280;39219;53.678;9.856;2023-05-07T09:37:05;77289.56;;;-147.77;67.83
52839;BME280;39219;53.678;9.856;2023-05-07T09:39:39;77293.59;;;-147.77;68.68
52839;BME280;39219;53.678;9.856;2023-05-07T09:42:07;77285.50;;;-147.77;69.22
52839;BME280;39219;53.678;9.856;2023-05-07T09:44:34;77265.28;;;-147.77;66.20
52839;BME280;39219;53.678;9.856;2023-05-07T09:47:00;77265.28;;;-147.77;66.53
52839;BME280;39219;53.678;9.856;2023-05-07T09:49:29;77275.38;;;-147.77;67.62
52839;BME280;39219;53.678;9.856;2023-05-07T09:51:56;77224.81;;;-147.77;67.66
52839;BME280;39219;53.678;9.856;2023-05-07T09:54:24;77247.06;;;-147.77;66.22
52839;BME280;39219;53.678;9.856;2023-05-07T09:56:52;77238.97;;;-147.77;66.92
52839;BME280;39219;53.678;9.856;2023-05-07T09:59:21;77230.88;;;-147.77;66.25
52839;BME280;39219;53.678;9.856;2023-05-07T10:01:48;77234.91;;;-147.77;65.21
52839;BME280;39219;53.678;9.856;2023-05-07T10:04:16;77241.00;;;-147.77;66.05
52839;BME280;39219;53.678;9.856;2023-05-07T10:06:44;77234.91;;;-147.77;64.81
52839;BME280;39219;53.678;9.856;2023-05-07T10:09:11;77200.53;;;-147.77;66.90
52839;BME280;39219;53.678;9.856;2023-05-07T10:11:38;77186.38;;;-147.77;65.61
52839;BME280;39219;53.678;9.856;2023-05-07T10:14:05;77170.19;;;-147.77;65.85
52839;BME280;39219;53.678;9.856;2023-05-07T10:16:34;77194.47;;;-147.77;64.98
52839;BME280;39219;53.678;9.856;2023-05-07T10:19:02;77230.88;;;-147.77;65.56
52839;BME280;39219;53.678;9.856;2023-05-07T10:21:29;77273.38;;;-147.77;63.18
52839;BME280;39219;53.678;9.856;2023-05-07T10:23:58;77257.19;;;-147.77;65.97
52839;BME280;39219;53.678;9.856;2023-05-07T10:26:27;77265.28;;;-147.77;67.01
52839;BME280;39219;53.678;9.856;2023-05-07T10:28:59;77263.25;;;-147.77;66.46
52839;BME280;39219;53.678;9.856;2023-05-07T10:31:55;77259.19;;;-147.77;66.85
52839;BME280;39219;53.678;9.856;2023-05-07T10:34:28;77236.94;;;-147.77;66.25
52839;BME280;39219;53.678;9.856;2023-05-07T10:36:56;77236.94;;;-147.77;65.13
52839;BME280;39219;53.678;9.856;2023-05-07T10:39:23;77232.91;;;-147.77;66.22
52839;BME280;39219;53.678;9.856;2023-05-07T10:41:50;77249.09;;;-147.77;66.30
52839;BME280;39219;53.678;9.856;2023-05-07T10:44:26;77232.91;;;-147.77;64.59
52839;BME280;39219;53.678;9.856;2023-05-07T10:47:11;77230.88;;;-147.77;64.92
52839;BME280;39219;53.678;9.856;2023-05-07T10:52:37;77200.53;;;-147.77;65.12
52839;BME280;39219;53.678;9.856;2023-05-07T10:55:19;77192.44;;;-147.77;66.11
52839;BME280;39219;53.678;9.856;2023-05-07T10:57:47;77170.19;;;-147.77;64.64
52839;BME280;39219;53.678;9.856;2023-05-07T11:00:41;77113.53;;;-147.77;65.03
52839;BME280;39219;53.678;9.856;2023-05-07T11:03:09;77115.56;;;-147.77;63.06
52839;BME280;39219;53.678;9.856;2023-05-07T11:05:36;77145.91;;;-147.77;61.67
52839;BME280;39219;53.678;9.856;2023-05-07T11:08:03;77166.13;;;-147.77;61.81
52839;BME280;39219;53.678;9.856;2023-05-07T11:10:50;77164.09;;;-147.77;63.42
52839;BME280;39219;53.678;9.856;2023-05-07T11:13:18;77125.66;;;-147.77;63.73
52839;BME280;39219;53.678;9.856;2023-05-07T11:15:45;77109.47;;;-147.77;64.23
52839;BME280;39219;53.678;9.856;2023-05-07T11:18:15;77129.72;;;-147.77;62.07
52839;BME280;39219;53.678;9.856;2023-05-07T11:20:56;77158.03;;;-147.77;61.04
52839;BME280;39219;53.678;9.856;2023-05-07T11:26:42;77103.41;;;-147.77;62.19
52839;BME280;39219;53.678;9.856;2023-05-07T11:29:14;77117.56;;;-147.77;62.31
52839;BME280;39219;53.678;9.856;2023-05-07T11:31:41;77105.44;;;-147.77;63.99
52839;BME280;39219;53.678;9.856;2023-05-07T11:34:09;77085.22;;;-147.77;63.05
52839;BME280;39219;53.678;9.856;2023-05-07T11:36:36;77073.06;;;-147.77;60.88
52839;BME280;39219;53.678;9.856;2023-05-07T11:39:26;77119.59;;;-147.77;60.63
52839;BME280;39219;53.678;9.856;2023-05-07T11:41:52;77131.75;;;-147.77;60.85
52839;BME280;39219;53.678;9.856;2023-05-07T11:44:19;77131.75;;;-147.77;62.63
52839;BME280;39219;53.678;9.856;2023-05-07T11:46:45;77087.22;;;-147.77;63.12
52839;BME280;39219;53.678;9.856;2023-05-07T11:49:13;77077.13;;;-147.77;60.49
52839;BME280;39219;53.678;9.856;2023-05-07T11:51:40;77069.03;;;-147.77;62.79
52839;BME280;39219;53.678;9.856;2023-05-07T11:54:08;77050.81;;;-147.77;61.31
52839;BME280;39219;53.678;9.856;2023-05-07T11:56:37;77028.56;;;-147.77;60.86
52839;BME280;39219;53.678;9.856;2023-05-07T11:59:03;77000.22;;;-147.77;63.77
52839;BME280;39219;53.678;9.856;2023-05-07T12:01:30;76996.19;;;-147.77;60.16
52839;BME280;39219;53.678;9.856;2023-05-07T12:03:57;76977.97;;;-147.77;58.75
52839;BME280;39219;53.678;9.856;2023-05-07T12:06:24;76980.00;;;-147.77;57.86
52839;BME280;39219;53.678;9.856;2023-05-07T12:08:53;76939.53;;;-147.77;59.84
52839;BME280;39219;53.678;9.856;2023-05-07T12:11:23;76905.16;;;-147.77;58.20
52839;BME280;39219;53.678;9.856;2023-05-07T12:13:50;76913.25;;;-147.77;59.89
52839;BME280;39219;53.678;9.856;2023-05-07T12:16:17;76925.38;;;-147.77;56.70
52839;BME280;39219;53.678;9.856;2023-05-07T12:18:44;76945.59;;;-147.77;56.93
52839;BME280;39219;53.678;9.856;2023-05-07T12:21:11;76905.16;;;-147.77;56.89
52839;BME280;39219;53.678;9.856;2023-05-07T12:23:39;76939.53;;;-147.77;55.76
52839;BME280;39219;53.678;9.856;2023-05-07T12:26:06;76931.44;;;-147.77;56.26
52839;BME280;39219;53.678;9.856;2023-05-07T12:28:36;76909.19;;;-147.77;56.55
52839;BME280;39219;53.678;9.856;2023-05-07T12:31:03;76888.97;;;-147.77;57.95
52839;BME280;39219;53.678;9.856;2023-05-07T12:33:30;76878.84;;;-147.77;55.90
52839;BME280;39219;53.678;9.856;2023-05-07T12:35:58;76888.97;;;-147.77;56.05
52839;BME280;39219;53.678;9.856;2023-05-07T12:38:24;76882.91;;;-147.77;55.66
52839;BME280;39219;53.678;9.856;2023-05-07T12:40:54;76903.13;;;-147.77;54.49
52839;BME280;39219;53.678;9.856;2023-05-07T12:43:24;76933.47;;;-147.77;55.50
52839;BME280;39219;53.678;9.856;2023-05-07T12:45:53;76925.38;;;-147.77;58.40
52839;BME280;39219;53.678;9.856;2023-05-07T12:48:20;76886.94;;;-147.77;60.06